Time;durP1;ratioP1;P1;durP2;ratioP2;P2;SDS_P1;SDS_P2;PMS_P1;PMS_P2;Temp;Humidity;BMP_temperature;BMP_pressure;BME280_temperature;BME280_humidity;BME280_pressure;Samples;Min_cycle;Max_cycle;Signal;HPM_P1;HPM_P2
2022/12/13 00:02:24;;;;;;;;;;;;;;;;;;5094717;28;19908;-70
2022/12/13 00:04:50;;;;;;;;;;;;;;;;;;5095129;28;19951;-70
2022/12/13 00:07:16;;;;;;;;;;;;;;;;;;5095671;28;20369;-70
2022/12/13 00:09:42;;;;;;;;;;;;;;;;;;5094675;28;20350;-70
2022/12/13 00:12:08;;;;;;;;;;;;;;;;;;5076809;28;19908;-70
2022/12/13 00:14:34;;;;;;;;;;;;;;;;;;5094989;28;19912;-70
2022/12/13 00:17:00;;;;;;;;;;;;;;;;;;5093679;28;19915;-71
2022/12/13 00:19:26;;;;;;;;;;;;;;;;;;5095124;28;19915;-70
2022/12/13 00:21:52;;;;;;;;;;;;;;;;;;5094836;28;19942;-70
2022/12/13 00:24:18;;;;;;;;;;;;;;;;;;5076186;28;19961;-70
2022/12/13 00:26:44;;;;;;;;;;;;;;;;;;5094998;28;19908;-70
2022/12/13 00:29:10;;;;;;;;;;;;;;;;;;5094602;28;20353;-70
2022/12/13 00:31:36;;;;;;;;;;;;;;;;;;5094122;28;19911;-70
2022/12/13 00:34:01;;;;;;;;;;;;;;;;;;5095151;28;19916;-71
2022/12/13 00:36:27;;;;;;;;;;;;;;;;;;5094571;28;20015;-71
2022/12/13 00:38:59;;;;;;;;;;;;;;;;;;5094131;28;19953;-71
2022/12/13 00:41:25;;;;;;;;;;;;;;;;;;5094441;28;19908;-71
2022/12/13 00:43:52;;;;;;;;;;;;;;;;;;5076225;28;19908;-70
2022/12/13 00:46:17;;;;;;;;;;;;;;;;;;5094010;28;19908;-70
2022/12/13 00:48:44;;;;;;;;;;;;;;;;;;5094419;28;20007;-70
2022/12/13 00:51:09;;;;;;;;;;;;;;;;;;5075822;28;19908;-70
2022/12/13 00:53:35;;;;;;;;;;;;;;;;;;5094161;28;19916;-71
2022/12/13 00:56:01;;;;;;;;;;;;;;;;;;5094211;28;19912;-71
2022/12/13 00:58:27;;;;;;;;;;;;;;;;;;5093775;28;19908;-70
2022/12/13 01:00:53;;;;;;;;;;;;;;;;;;5094489;28;19915;-70
2022/12/13 01:03:19;;;;;;;;;;;;;;;;;;5094115;28;19912;-71
2022/12/13 01:05:45;;;;;;;;;;;;;;;;;;5075690;28;19916;-71
2022/12/13 01:08:11;;;;;;;;;;;;;;;;;;5075816;28;19908;-71
2022/12/13 01:10:37;;;;;;;;;;;;;;;;;;5093986;28;19990;-70
2022/12/13 01:13:04;;;;;;;;;;;;;;;;;;5093914;28;19939;-70
2022/12/13 01:15:30;;;;;;;;;;;;;;;;;;5094016;28;19977;-71
2022/12/13 01:17:56;;;;;;;;;;;;;;;;;;5093891;28;20356;-70
2022/12/13 01:20:21;;;;;;;;;;;;;;;;;;5093482;28;20348;-70
2022/12/13 01:22:47;;;;;;;;;;;;;;;;;;5093881;28;20391;-71
2022/12/13 01:25:13;;;;;;;;;;;;;;;;;;5093760;28;19908;-71
2022/12/13 01:27:39;;;;;;;;;;;;;;;;;;5093258;28;19952;-70
2022/12/13 01:30:05;;;;;;;;;;;;;;;;;;5075680;28;19908;-70
2022/12/13 01:32:31;;;;;;;;;;;;;;;;;;5093397;28;20030;-70
2022/12/13 01:34:57;;;;;;;;;;;;;;;;;;5093309;28;19915;-71
2022/12/13 01:37:23;;;;;;;;;;;;;;;;;;5093965;28;19909;-71
2022/12/13 01:39:49;;;;;;;;;;;;;;;;;;5093643;28;19985;-71
2022/12/13 01:42:15;;;;;;;;;;;;;;;;;;5093308;28;19908;-72
2022/12/13 01:44:41;;;;;;;;;;;;;;;;;;5093568;28;20276;-71
2022/12/13 01:47:07;;;;;;;;;;;;;;;;;;5093608;28;19970;-70
2022/12/13 01:49:33;;;;;;;;;;;;;;;;;;5093150;28;19912;-70
2022/12/13 01:51:59;;;;;;;;;;;;;;;;;;5093512;28;19912;-70
2022/12/13 01:54:24;;;;;;;;;;;;;;;;;;5093203;28;19912;-71
2022/12/13 01:56:50;;;;;;;;;;;;;;;;;;5093422;28;19908;-70
2022/12/13 01:59:16;;;;;;;;;;;;;;;;;;5093639;28;19908;-71
2022/12/13 02:01:42;;;;;;;;;;;;;;;;;;5093068;28;20284;-71
2022/12/13 02:04:08;;;;;;;;;;;;;;;;;;5075608;28;20019;-70
2022/12/13 02:06:34;;;;;;;;;;;;;;;;;;5075248;28;19915;-70
2022/12/13 02:09:00;;;;;;;;;;;;;;;;;;5093087;28;19909;-71
2022/12/13 02:11:26;;;;;;;;;;;;;;;;;;5093413;28;20353;-70
2022/12/13 02:13:52;;;;;;;;;;;;;;;;;;5093399;28;19916;-70
2022/12/13 02:16:18;;;;;;;;;;;;;;;;;;5093011;28;19914;-70
2022/12/13 02:18:44;;;;;;;;;;;;;;;;;;5093355;28;19908;-71
2022/12/13 02:21:10;;;;;;;;;;;;;;;;;;5093265;28;19914;-70
2022/12/13 02:23:36;;;;;;;;;;;;;;;;;;5092909;28;19909;-70
2022/12/13 02:26:02;;;;;;;;;;;;;;;;;;5093340;28;19914;-70
2022/12/13 02:28:28;;;;;;;;;;;;;;;;;;5093475;28;19974;-70
2022/12/13 02:30:54;;;;;;;;;;;;;;;;;;5092819;28;19936;-70
2022/12/13 02:33:20;;;;;;;;;;;;;;;;;;5092933;28;19920;-70
2022/12/13 02:35:46;;;;;;;;;;;;;;;;;;5093175;28;20014;-71
2022/12/13 02:38:12;;;;;;;;;;;;;;;;;;5092770;28;19908;-71
2022/12/13 02:40:38;;;;;;;;;;;;;;;;;;5094904;28;19943;-71
2022/12/13 02:43:04;;;;;;;;;;;;;;;;;;5096774;28;19908;-71
2022/12/13 02:45:30;;;;;;;;;;;;;;;;;;5096422;28;19915;-71
2022/12/13 02:47:56;;;;;;;;;;;;;;;;;;5096682;28;19909;-70
2022/12/13 02:50:22;;;;;;;;;;;;;;;;;;5097001;28;20395;-70
2022/12/13 02:52:47;;;;;;;;;;;;;;;;;;5096126;28;20249;-70
2022/12/13 02:55:13;;;;;;;;;;;;;;;;;;5078438;28;19908;-71
2022/12/13 02:57:39;;;;;;;;;;;;;;;;;;5096180;28;19962;-70
2022/12/13 03:00:05;;;;;;;;;;;;;;;;;;5078336;28;19909;-71
2022/12/13 03:02:31;;;;;;;;;;;;;;;;;;5096759;28;19908;-71
2022/12/13 03:07:42;;;;;;;;;;;;;;;;;;5096375;28;19954;-70
2022/12/13 03:10:08;;;;;;;;;;;;;;;;;;5096435;28;19911;-70
2022/12/13 03:15:18;;;;;;;;;;;;;;;;;;5096277;28;19930;-70
2022/12/13 03:17:44;;;;;;;;;;;;;;;;;;5096116;28;19912;-71
2022/12/13 03:20:10;;;;;;;;;;;;;;;;;;5095700;28;19909;-70
2022/12/13 03:22:36;;;;;;;;;;;;;;;;;;5077907;28;19908;-70
2022/12/13 03:25:02;;;;;;;;;;;;;;;;;;5077909;28;19908;-70
2022/12/13 03:27:28;;;;;;;;;;;;;;;;;;5095626;28;19915;-70
2022/12/13 03:29:54;;;;;;;;;;;;;;;;;;5095903;28;19915;-70
2022/12/13 03:32:20;;;;;;;;;;;;;;;;;;5095590;28;20330;-70
2022/12/13 03:34:46;;;;;;;;;;;;;;;;;;5077441;28;19908;-70
2022/12/13 03:37:12;;;;;;;;;;;;;;;;;;5095824;28;20007;-70
2022/12/13 03:39:38;;;;;;;;;;;;;;;;;;5095701;28;19961;-71
2022/12/13 03:42:04;;;;;;;;;;;;;;;;;;5095257;28;20298;-71
2022/12/13 03:44:30;;;;;;;;;;;;;;;;;;5095651;28;20318;-71
2022/12/13 03:46:56;;;;;;;;;;;;;;;;;;5095134;28;20013;-70
2022/12/13 03:49:22;;;;;;;;;;;;;;;;;;5095592;28;20257;-71
2022/12/13 03:51:48;;;;;;;;;;;;;;;;;;5095520;28;20303;-70
2022/12/13 03:54:14;;;;;;;;;;;;;;;;;;5094971;28;19920;-71
2022/12/13 03:56:40;;;;;;;;;;;;;;;;;;5095495;28;19955;-71
2022/12/13 03:59:05;;;;;;;;;;;;;;;;;;5095785;28;20368;-71
2022/12/13 04:01:31;;;;;;;;;;;;;;;;;;5094893;28;20317;-71
2022/12/13 04:03:57;;;;;;;;;;;;;;;;;;5095277;28;19931;-69
2022/12/13 04:06:23;;;;;;;;;;;;;;;;;;5077015;28;19908;-69
2022/12/13 04:08:49;;;;;;;;;;;;;;;;;;5094757;28;19999;-69
2022/12/13 04:14:00;;;;;;;;;;;;;;;;;;5095060;28;19938;-69
2022/12/13 04:16:26;;;;;;;;;;;;;;;;;;5094576;28;20356;-69
2022/12/13 04:18:52;;;;;;;;;;;;;;;;;;5094942;28;20342;-69
2022/12/13 04:21:18;;;;;;;;;;;;;;;;;;5094918;28;19909;-69
2022/12/13 04:23:44;;;;;;;;;;;;;;;;;;5094430;28;20013;-69
2022/12/13 04:26:10;;;;;;;;;;;;;;;;;;5095000;28;19916;-69
2022/12/13 04:28:36;;;;;;;;;;;;;;;;;;5095083;28;20006;-69
2022/12/13 04:31:02;;;;;;;;;;;;;;;;;;5094310;28;19908;-69
2022/12/13 04:33:27;;;;;;;;;;;;;;;;;;5094460;28;19920;-69
2022/12/13 04:35:53;;;;;;;;;;;;;;;;;;5094754;28;19999;-69
2022/12/13 04:38:19;;;;;;;;;;;;;;;;;;5094207;28;19915;-70
2022/12/13 04:40:45;;;;;;;;;;;;;;;;;;5076663;28;20026;-69
2022/12/13 04:43:11;;;;;;;;;;;;;;;;;;5094090;28;19908;-70
2022/12/13 04:45:37;;;;;;;;;;;;;;;;;;5094544;28;20006;-70
2022/12/13 04:48:03;;;;;;;;;;;;;;;;;;5094350;28;20349;-70
2022/12/13 04:50:29;;;;;;;;;;;;;;;;;;5094356;28;20330;-70
2022/12/13 04:52:55;;;;;;;;;;;;;;;;;;5094452;28;20254;-70
2022/12/13 04:55:21;;;;;;;;;;;;;;;;;;5094385;28;19908;-70
2022/12/13 04:57:47;;;;;;;;;;;;;;;;;;5093886;28;19908;-70
2022/12/13 05:00:13;;;;;;;;;;;;;;;;;;5076112;28;20357;-70
2022/12/13 05:02:42;;;;;;;;;;;;;;;;;;5093739;28;19912;-70
2022/12/13 05:05:08;;;;;;;;;;;;;;;;;;5093659;28;19916;-70
2022/12/13 05:07:34;;;;;;;;;;;;;;;;;;5094093;28;19908;-70
2022/12/13 05:10:00;;;;;;;;;;;;;;;;;;5075931;28;19908;-70
2022/12/13 05:12:26;;;;;;;;;;;;;;;;;;5093482;28;19913;-70
2022/12/13 05:14:52;;;;;;;;;;;;;;;;;;5094060;28;20447;-70
2022/12/13 05:17:18;;;;;;;;;;;;;;;;;;5094015;28;20281;-70
2022/12/13 05:19:44;;;;;;;;;;;;;;;;;;5093579;28;20268;-70
2022/12/13 05:22:16;;;;;;;;;;;;;;;;;;5075779;28;20317;-70
2022/12/13 05:24:42;;;;;;;;;;;;;;;;;;5094024;28;20306;-70
2022/12/13 05:27:08;;;;;;;;;;;;;;;;;;5093477;28;19908;-71
2022/12/13 05:29:35;;;;;;;;;;;;;;;;;;5094437;28;19931;-70
2022/12/13 05:32:00;;;;;;;;;;;;;;;;;;5072164;28;19924;-71
2022/12/13 05:34:26;;;;;;;;;;;;;;;;;;5073001;28;19920;-71
2022/12/13 05:36:52;;;;;;;;;;;;;;;;;;5073463;28;19915;-71
2022/12/13 05:39:18;;;;;;;;;;;;;;;;;;5073733;28;19912;-71
2022/12/13 05:41:44;;;;;;;;;;;;;;;;;;5072245;28;19962;-71
2022/12/13 05:44:12;;;;;;;;;;;;;;;;;;5073521;28;19908;-71
2022/12/13 05:46:38;;;;;;;;;;;;;;;;;;5072980;28;19912;-71
2022/12/13 05:49:04;;;;;;;;;;;;;;;;;;5073495;28;20003;-71
2022/12/13 05:51:30;;;;;;;;;;;;;;;;;;5072640;28;19912;-71
2022/12/13 05:53:56;;;;;;;;;;;;;;;;;;5071965;28;19923;-71
2022/12/13 05:56:21;;;;;;;;;;;;;;;;;;5071361;28;19908;-71
2022/12/13 05:58:47;;;;;;;;;;;;;;;;;;5069973;28;19908;-71
2022/12/13 06:01:13;;;;;;;;;;;;;;;;;;5069512;28;19916;-71
2022/12/13 06:03:39;;;;;;;;;;;;;;;;;;5071226;28;19991;-71
2022/12/13 06:06:05;;;;;;;;;;;;;;;;;;5071191;28;20280;-71
2022/12/13 06:08:31;;;;;;;;;;;;;;;;;;5070828;28;19913;-71
2022/12/13 06:10:57;;;;;;;;;;;;;;;;;;5071214;28;19978;-70
2022/12/13 06:13:24;;;;;;;;;;;;;;;;;;5070964;28;19924;-71
2022/12/13 06:15:50;;;;;;;;;;;;;;;;;;5072969;28;20008;-70
2022/12/13 06:18:16;;;;;;;;;;;;;;;;;;5073369;28;19987;-71
2022/12/13 06:20:41;;;;;;;;;;;;;;;;;;5069577;28;20288;-84
2022/12/13 06:23:08;;;;;;;;;;;;;;;;;;5066757;28;20249;-82
2022/12/13 06:25:34;;;;;;;;;;;;;;;;;;5075215;28;20383;-81
2022/12/13 06:28:00;;;;;;;;;;;;;;;;;;5074747;28;19909;-82
2022/12/13 06:30:26;;;;;;;;;;;;;;;;;;5073038;28;19944;-71
2022/12/13 06:32:51;;;;;;;;;;;;;;;;;;5071848;28;20011;-72
2022/12/13 06:35:17;;;;;;;;;;;;;;;;;;5073996;28;20059;-74
2022/12/13 06:37:43;;;;;;;;;;;;;;;;;;5073897;28;19966;-71
2022/12/13 06:40:09;;;;;;;;;;;;;;;;;;5073587;28;20015;-72
2022/12/13 06:42:35;;;;;;;;;;;;;;;;;;5070693;28;20140;-71
2022/12/13 06:45:01;;;;;;;;;;;;;;;;;;5067821;28;19958;-72
2022/12/13 06:47:27;;;;;;;;;;;;;;;;;;5071621;28;19909;-72
2022/12/13 06:49:53;;;;;;;;;;;;;;;;;;5069309;28;19909;-69
2022/12/13 06:52:19;;;;;;;;;;;;;;;;;;5071202;28;19912;-69
2022/12/13 06:54:45;;;;;;;;;;;;;;;;;;5071646;28;20007;-68
2022/12/13 06:57:11;;;;;;;;;;;;;;;;;;5072981;28;19919;-73
2022/12/13 06:59:37;;;;;;;;;;;;;;;;;;5073368;28;19948;-70
2022/12/13 07:02:03;;;;;;;;;;;;;;;;;;5071921;28;19916;-69
2022/12/13 07:04:29;;;;;;;;;;;;;;;;;;5072715;28;20002;-69
2022/12/13 07:06:55;;;;;;;;;;;;;;;;;;5073027;28;20288;-69
2022/12/13 07:09:21;;;;;;;;;;;;;;;;;;5073668;28;20293;-69
2022/12/13 07:11:47;;;;;;;;;;;;;;;;;;5074160;28;20368;-68
2022/12/13 07:14:13;;;;;;;;;;;;;;;;;;5074430;28;19916;-67
2022/12/13 07:16:39;;;;;;;;;;;;;;;;;;5070902;28;19913;-71
2022/12/13 07:19:05;;;;;;;;;;;;;;;;;;5066525;28;21196;-66
2022/12/13 07:21:31;;;;;;;;;;;;;;;;;;5073381;28;19947;-71
2022/12/13 07:23:57;;;;;;;;;;;;;;;;;;5072961;28;19939;-69
2022/12/13 07:26:24;;;;;;;;;;;;;;;;;;5072813;28;20017;-69
2022/12/13 07:28:50;;;;;;;;;;;;;;;;;;5072864;28;19915;-68
2022/12/13 07:31:17;;;;;;;;;;;;;;;;;;5064228;28;19918;-70
2022/12/13 07:33:43;;;;;;;;;;;;;;;;;;5083620;28;20011;-73
2022/12/13 07:36:09;;;;;;;;;;;;;;;;;;5092216;28;20002;-73
2022/12/13 07:38:35;;;;;;;;;;;;;;;;;;5093283;28;19920;-71
2022/12/13 07:41:01;;;;;;;;;;;;;;;;;;5090210;28;19916;-69
2022/12/13 07:43:28;;;;;;;;;;;;;;;;;;5020041;27;19925;-69
2022/12/13 07:45:54;;;;;;;;;;;;;;;;;;5013325;28;20000;-71
2022/12/13 07:48:20;;;;;;;;;;;;;;;;;;5013668;28;19972;-72
2022/12/13 07:50:46;;;;;;;;;;;;;;;;;;5013726;28;19910;-69
2022/12/13 07:53:13;;;;;;;;;;;;;;;;;;5012591;28;19925;-68
2022/12/13 07:55:39;;;;;;;;;;;;;;;;;;5012304;28;20001;-71
2022/12/13 07:58:04;;;;;;;;;;;;;;;;;;5011565;28;19909;-70
2022/12/13 08:00:31;;;;;;;;;;;;;;;;;;5012019;28;19924;-68
2022/12/13 08:02:57;;;;;;;;;;;;;;;;;;5012423;28;19941;-69
2022/12/13 08:05:23;;;;;;;;;;;;;;;;;;5011896;28;19910;-74
2022/12/13 08:07:49;;;;;;;;;;;;;;;;;;5008995;28;19918;-73
2022/12/13 08:10:15;;;;;;;;;;;;;;;;;;5012791;28;19944;-72
2022/12/13 08:12:41;;;;;;;;;;;;;;;;;;5013312;28;20390;-70
2022/12/13 08:15:07;;;;;;;;;;;;;;;;;;5013440;28;20286;-74
2022/12/13 08:17:33;;;;;;;;;;;;;;;;;;5013517;28;19972;-75
2022/12/13 08:19:59;;;;;;;;;;;;;;;;;;5009500;28;19914;-74
2022/12/13 08:22:25;;;;;;;;;;;;;;;;;;4992758;28;19936;-75
2022/12/13 08:24:51;;;;;;;;;;;;;;;;;;5009748;28;19909;-75
2022/12/13 08:27:17;;;;;;;;;;;;;;;;;;5003420;28;20355;-74
2022/12/13 08:29:43;;;;;;;;;;;;;;;;;;5005632;28;20686;-74
2022/12/13 08:32:09;;;;;;;;;;;;;;;;;;5009866;28;19926;-73
2022/12/13 08:34:35;;;;;;;;;;;;;;;;;;5010190;28;19957;-73
2022/12/13 08:37:01;;;;;;;;;;;;;;;;;;5011657;28;19916;-74
2022/12/13 08:39:27;;;;;;;;;;;;;;;;;;5012544;28;19909;-75
2022/12/13 08:41:53;;;;;;;;;;;;;;;;;;5011505;28;19913;-74
2022/12/13 08:44:19;;;;;;;;;;;;;;;;;;5009981;28;19967;-74
2022/12/13 08:46:45;;;;;;;;;;;;;;;;;;5010103;28;19921;-75
2022/12/13 08:49:11;;;;;;;;;;;;;;;;;;5002820;28;20381;-74
2022/12/13 08:51:37;;;;;;;;;;;;;;;;;;4992033;28;20362;-81
2022/12/13 08:54:03;;;;;;;;;;;;;;;;;;5009103;28;19921;-78
2022/12/13 08:56:29;;;;;;;;;;;;;;;;;;5010897;28;19919;-76
2022/12/13 08:58:55;;;;;;;;;;;;;;;;;;4994697;28;20332;-78
2022/12/13 09:01:21;;;;;;;;;;;;;;;;;;5011158;28;19913;-78
2022/12/13 09:03:47;;;;;;;;;;;;;;;;;;4992767;28;19950;-76
2022/12/13 09:06:13;;;;;;;;;;;;;;;;;;4992218;28;19917;-82
2022/12/13 09:08:39;;;;;;;;;;;;;;;;;;4992338;28;19914;-76
2022/12/13 09:11:05;;;;;;;;;;;;;;;;;;5010374;28;19916;-77
2022/12/13 09:13:31;;;;;;;;;;;;;;;;;;5002861;28;19921;-78
2022/12/13 09:15:58;;;;;;;;;;;;;;;;;;5009039;28;19916;-77
2022/12/13 09:18:24;;;;;;;;;;;;;;;;;;5008385;28;20063;-75
2022/12/13 09:20:50;;;;;;;;;;;;;;;;;;5009333;28;20004;-74
2022/12/13 09:23:16;;;;;;;;;;;;;;;;;;5010258;28;20331;-68
2022/12/13 09:25:42;;;;;;;;;;;;;;;;;;5009055;28;19910;-70
2022/12/13 09:28:08;;;;;;;;;;;;;;;;;;5011537;28;19921;-70
2022/12/13 09:30:34;;;;;;;;;;;;;;;;;;5012392;28;20286;-73
2022/12/13 09:33:00;;;;;;;;;;;;;;;;;;4993647;28;19925;-72
2022/12/13 09:35:26;;;;;;;;;;;;;;;;;;5012557;28;19972;-68
2022/12/13 09:37:52;;;;;;;;;;;;;;;;;;4994691;28;19910;-70
2022/12/13 09:40:18;;;;;;;;;;;;;;;;;;4992995;28;19913;-70
2022/12/13 09:42:44;;;;;;;;;;;;;;;;;;5009026;28;19910;-72
2022/12/13 09:45:10;;;;;;;;;;;;;;;;;;4992520;28;19917;-71
2022/12/13 09:47:36;;;;;;;;;;;;;;;;;;5012472;28;20389;-72
2022/12/13 09:50:02;;;;;;;;;;;;;;;;;;5012282;28;19957;-75
2022/12/13 09:52:28;;;;;;;;;;;;;;;;;;4996803;28;19910;-76
2022/12/13 09:54:54;;;;;;;;;;;;;;;;;;5011756;28;19937;-76
2022/12/13 09:57:20;;;;;;;;;;;;;;;;;;4995624;28;19964;-79
2022/12/13 09:59:46;;;;;;;;;;;;;;;;;;5012240;28;20331;-84
2022/12/13 10:02:12;;;;;;;;;;;;;;;;;;4993883;28;20325;-83
2022/12/13 10:04:38;;;;;;;;;;;;;;;;;;5012434;28;20359;-77
2022/12/13 10:07:04;;;;;;;;;;;;;;;;;;5009214;28;19968;-81
2022/12/13 10:09:30;;;;;;;;;;;;;;;;;;4994136;28;19910;-79
2022/12/13 10:11:56;;;;;;;;;;;;;;;;;;5015338;28;19955;-79
2022/12/13 10:14:22;;;;;;;;;;;;;;;;;;5014221;28;19925;-78
2022/12/13 10:16:48;;;;;;;;;;;;;;;;;;5014230;28;19909;-76
2022/12/13 10:19:14;;;;;;;;;;;;;;;;;;5014562;28;19910;-80
2022/12/13 10:21:40;;;;;;;;;;;;;;;;;;5013256;28;19910;-78
2022/12/13 10:24:06;;;;;;;;;;;;;;;;;;5015435;28;19910;-79
2022/12/13 10:26:33;;;;;;;;;;;;;;;;;;4997791;28;19913;-82
2022/12/13 10:28:59;;;;;;;;;;;;;;;;;;4997641;28;19951;-73
2022/12/13 10:31:25;;;;;;;;;;;;;;;;;;5012196;28;20418;-72
2022/12/13 10:33:51;;;;;;;;;;;;;;;;;;5014432;28;19921;-72
2022/12/13 10:36:17;;;;;;;;;;;;;;;;;;5015218;28;20317;-73
2022/12/13 10:38:44;;;;;;;;;;;;;;;;;;5015195;28;20100;-74
2022/12/13 10:41:10;;;;;;;;;;;;;;;;;;5015775;28;20336;-77
2022/12/13 10:43:36;;;;;;;;;;;;;;;;;;5014434;28;19909;-76
2022/12/13 10:46:02;;;;;;;;;;;;;;;;;;5013142;28;19916;-73
2022/12/13 10:48:29;;;;;;;;;;;;;;;;;;5011712;28;19945;-74
2022/12/13 10:50:55;;;;;;;;;;;;;;;;;;5011603;28;19917;-74
2022/12/13 10:53:21;;;;;;;;;;;;;;;;;;5012374;28;19924;-73
2022/12/13 10:55:47;;;;;;;;;;;;;;;;;;4993225;28;19924;-73
2022/12/13 10:58:13;;;;;;;;;;;;;;;;;;5013420;28;19909;-73
2022/12/13 11:00:40;;;;;;;;;;;;;;;;;;5013590;28;19936;-71
2022/12/13 11:05:33;;;;;;;;;;;;;;;;;;5108365;27;19921;-74
2022/12/13 11:07:59;;;;;;;;;;;;;;;;;;5105494;28;19916;-71
2022/12/13 11:10:47;;;;;;;;;;;;;;;;;;5128227;27;19912;-71
2022/12/13 11:13:13;;;;;;;;;;;;;;;;;;5108722;28;19912;-75
2022/12/13 11:15:39;;;;;;;;;;;;;;;;;;5128408;28;19968;-76
2022/12/13 11:18:05;;;;;;;;;;;;;;;;;;5127576;28;19908;-77
2022/12/13 11:20:57;;;;;;;;;;;;;;;;;;5126458;27;20008;-75
2022/12/13 11:23:23;;;;;;;;;;;;;;;;;;5126909;28;19923;-74
2022/12/13 11:25:49;;;;;;;;;;;;;;;;;;5125841;28;20379;-77
2022/12/13 11:28:15;;;;;;;;;;;;;;;;;;5126756;28;19964;-76
2022/12/13 11:32:28;;;;;;;;;;;;;;;;;;5086100;27;19916;-72
2022/12/13 11:34:53;;;;;;;;;;;;;;;;;;5087133;28;20344;-75
2022/12/13 11:37:19;;;;;;;;;;;;;;;;;;5088209;28;20003;-76
2022/12/13 11:39:45;;;;;;;;;;;;;;;;;;5087502;28;20373;-75
2022/12/13 11:42:11;;;;;;;;;;;;;;;;;;5086206;28;19919;-70
2022/12/13 11:45:53;;;;;;;;;;;;;;;;;;5067455;27;20385;-72
2022/12/13 11:48:18;;;;;;;;;;;;;;;;;;5100834;28;19952;-70
2022/12/13 11:50:44;;;;;;;;;;;;;;;;;;5070130;28;20037;-71
2022/12/13 11:53:10;;;;;;;;;;;;;;;;;;5069443;28;19913;-71
2022/12/13 11:55:36;;;;;;;;;;;;;;;;;;5069895;28;19936;-72
2022/12/13 11:58:03;;;;;;;;;;;;;;;;;;5064904;28;19912;-74
2022/12/13 12:00:30;;;;;;;;;;;;;;;;;;5067749;28;19971;-73
2022/12/13 12:02:56;;;;;;;;;;;;;;;;;;5067253;28;19963;-77
2022/12/13 12:05:22;;;;;;;;;;;;;;;;;;5066713;28;19944;-74
2022/12/13 12:07:49;;;;;;;;;;;;;;;;;;5065398;28;20320;-75
2022/12/13 12:10:15;;;;;;;;;;;;;;;;;;5064404;28;19931;-71
2022/12/13 12:12:41;;;;;;;;;;;;;;;;;;5068481;28;19912;-74
2022/12/13 12:15:07;;;;;;;;;;;;;;;;;;5098506;28;19916;-73
2022/12/13 12:17:33;;;;;;;;;;;;;;;;;;5098906;28;19920;-72
2022/12/13 12:19:59;;;;;;;;;;;;;;;;;;5096636;28;20614;-76
2022/12/13 12:22:25;;;;;;;;;;;;;;;;;;5062134;28;20003;-74
2022/12/13 12:24:51;;;;;;;;;;;;;;;;;;5061679;28;19966;-69
2022/12/13 12:27:17;;;;;;;;;;;;;;;;;;5095488;28;19908;-71
2022/12/13 12:29:43;;;;;;;;;;;;;;;;;;5067341;28;19961;-73
2022/12/13 12:32:09;;;;;;;;;;;;;;;;;;5066138;28;19912;-72
2022/12/13 12:34:35;;;;;;;;;;;;;;;;;;5065012;28;19916;-72
2022/12/13 12:37:01;;;;;;;;;;;;;;;;;;5065347;28;19909;-71
2022/12/13 12:39:27;;;;;;;;;;;;;;;;;;5098808;28;20383;-77
2022/12/13 12:41:53;;;;;;;;;;;;;;;;;;5097615;28;19971;-75
2022/12/13 12:44:19;;;;;;;;;;;;;;;;;;5075264;28;19960;-73
2022/12/13 12:46:45;;;;;;;;;;;;;;;;;;5086318;28;19915;-75
2022/12/13 12:49:11;;;;;;;;;;;;;;;;;;5085581;28;20008;-73
2022/12/13 12:51:37;;;;;;;;;;;;;;;;;;5079468;28;19916;-75
2022/12/13 12:54:03;;;;;;;;;;;;;;;;;;5086624;28;19999;-72
2022/12/13 12:56:29;;;;;;;;;;;;;;;;;;5059098;28;19908;-71
2022/12/13 12:58:54;;;;;;;;;;;;;;;;;;5073479;28;19962;-72
2022/12/13 13:01:20;;;;;;;;;;;;;;;;;;5074551;28;19912;-75
2022/12/13 13:03:46;;;;;;;;;;;;;;;;;;5075254;28;19927;-72
2022/12/13 13:06:12;;;;;;;;;;;;;;;;;;5075376;28;20368;-71
2022/12/13 13:08:38;;;;;;;;;;;;;;;;;;5074056;28;19913;-70
2022/12/13 13:11:04;;;;;;;;;;;;;;;;;;5074459;28;19917;-71
2022/12/13 13:13:30;;;;;;;;;;;;;;;;;;5074837;28;20404;-70
2022/12/13 13:15:56;;;;;;;;;;;;;;;;;;5073041;28;20284;-74
2022/12/13 13:18:22;;;;;;;;;;;;;;;;;;5043665;28;19921;-71
2022/12/13 13:20:48;;;;;;;;;;;;;;;;;;5034565;28;19920;-71
2022/12/13 13:23:14;;;;;;;;;;;;;;;;;;5033877;28;19955;-70
2022/12/13 13:25:40;;;;;;;;;;;;;;;;;;5031985;28;19924;-70
2022/12/13 13:28:06;;;;;;;;;;;;;;;;;;5033449;28;19909;-70
2022/12/13 13:30:32;;;;;;;;;;;;;;;;;;5033406;28;19909;-70
2022/12/13 13:32:58;;;;;;;;;;;;;;;;;;5033995;28;19909;-71
2022/12/13 13:35:24;;;;;;;;;;;;;;;;;;5033631;28;19999;-71
2022/12/13 13:37:50;;;;;;;;;;;;;;;;;;5033036;28;20266;-71
2022/12/13 13:40:16;;;;;;;;;;;;;;;;;;5032810;28;19917;-71
2022/12/13 13:42:42;;;;;;;;;;;;;;;;;;5033194;28;20000;-71
2022/12/13 13:45:09;;;;;;;;;;;;;;;;;;5033833;28;19921;-70
2022/12/13 13:47:37;;;;;;;;;;;;;;;;;;5054049;28;19909;-71
2022/12/13 13:50:03;;;;;;;;;;;;;;;;;;5054157;28;19909;-72
2022/12/13 13:52:29;;;;;;;;;;;;;;;;;;5053316;28;19962;-73
2022/12/13 13:54:55;;;;;;;;;;;;;;;;;;5052898;28;19974;-71
2022/12/13 13:57:21;;;;;;;;;;;;;;;;;;5051767;28;19913;-72
2022/12/13 13:59:47;;;;;;;;;;;;;;;;;;5051627;28;20603;-72
2022/12/13 14:02:13;;;;;;;;;;;;;;;;;;5050738;28;20312;-73
2022/12/13 14:04:39;;;;;;;;;;;;;;;;;;5052458;28;19922;-74
2022/12/13 14:07:05;;;;;;;;;;;;;;;;;;5051217;28;19916;-73
2022/12/13 14:09:31;;;;;;;;;;;;;;;;;;5052959;28;20369;-73
2022/12/13 14:11:57;;;;;;;;;;;;;;;;;;5054202;28;20450;-73
2022/12/13 14:14:23;;;;;;;;;;;;;;;;;;5054757;28;20389;-72
2022/12/13 14:16:49;;;;;;;;;;;;;;;;;;5053203;28;20532;-73
2022/12/13 14:19:15;;;;;;;;;;;;;;;;;;5051629;28;20383;-73
2022/12/13 14:21:41;;;;;;;;;;;;;;;;;;5051061;28;20448;-73
2022/12/13 14:24:07;;;;;;;;;;;;;;;;;;5052774;28;20266;-72
2022/12/13 14:26:33;;;;;;;;;;;;;;;;;;5052865;28;19935;-72
2022/12/13 14:28:59;;;;;;;;;;;;;;;;;;5052386;28;19909;-72
2022/12/13 14:31:25;;;;;;;;;;;;;;;;;;5052608;28;20357;-72
2022/12/13 14:33:51;;;;;;;;;;;;;;;;;;5054979;28;19908;-72
2022/12/13 14:36:17;;;;;;;;;;;;;;;;;;5054305;28;20379;-72
2022/12/13 14:38:43;;;;;;;;;;;;;;;;;;5054658;28;19995;-73
2022/12/13 14:41:09;;;;;;;;;;;;;;;;;;5054191;28;19995;-73
2022/12/13 14:43:35;;;;;;;;;;;;;;;;;;5054380;28;19913;-72
2022/12/13 14:46:01;;;;;;;;;;;;;;;;;;5054778;28;19915;-72
2022/12/13 14:48:27;;;;;;;;;;;;;;;;;;5054155;28;19916;-73
2022/12/13 14:50:53;;;;;;;;;;;;;;;;;;5054415;28;19909;-71
2022/12/13 14:53:19;;;;;;;;;;;;;;;;;;5054400;28;19909;-71
2022/12/13 14:55:45;;;;;;;;;;;;;;;;;;5054193;28;19916;-72
2022/12/13 14:58:10;;;;;;;;;;;;;;;;;;5052986;28;20336;-72
2022/12/13 15:00:37;;;;;;;;;;;;;;;;;;5054896;28;20415;-72
2022/12/13 15:03:03;;;;;;;;;;;;;;;;;;5053843;28;19909;-73
2022/12/13 15:05:29;;;;;;;;;;;;;;;;;;5053970;28;20008;-72
2022/12/13 15:07:55;;;;;;;;;;;;;;;;;;5052845;28;19912;-71
2022/12/13 15:10:21;;;;;;;;;;;;;;;;;;5053677;28;19908;-73
2022/12/13 15:12:47;;;;;;;;;;;;;;;;;;5052913;28;20408;-72
2022/12/13 15:15:13;;;;;;;;;;;;;;;;;;5052713;28;19909;-72
2022/12/13 15:17:39;;;;;;;;;;;;;;;;;;5053560;28;19991;-72
2022/12/13 15:20:05;;;;;;;;;;;;;;;;;;5053848;28;19916;-71
2022/12/13 15:22:31;;;;;;;;;;;;;;;;;;5053856;28;20357;-73
2022/12/13 15:24:57;;;;;;;;;;;;;;;;;;5053457;28;19921;-73
2022/12/13 15:27:23;;;;;;;;;;;;;;;;;;5054077;28;20388;-72
2022/12/13 15:29:49;;;;;;;;;;;;;;;;;;5052512;28;19909;-72
2022/12/13 15:32:17;;;;;;;;;;;;;;;;;;5052034;28;19916;-72
2022/12/13 15:34:43;;;;;;;;;;;;;;;;;;5053690;28;19909;-72
2022/12/13 15:37:09;;;;;;;;;;;;;;;;;;5053777;28;20392;-73
2022/12/13 15:39:35;;;;;;;;;;;;;;;;;;5052014;28;20281;-74
2022/12/13 15:42:01;;;;;;;;;;;;;;;;;;5053549;28;20328;-73
2022/12/13 15:44:27;;;;;;;;;;;;;;;;;;5053262;28;19921;-73
2022/12/13 15:46:53;;;;;;;;;;;;;;;;;;5053660;28;19955;-72
2022/12/13 15:49:19;;;;;;;;;;;;;;;;;;5053606;28;19909;-73
2022/12/13 15:51:45;;;;;;;;;;;;;;;;;;5051986;28;19913;-72
2022/12/13 15:54:11;;;;;;;;;;;;;;;;;;5053903;28;19918;-72
2022/12/13 15:56:37;;;;;;;;;;;;;;;;;;5052217;28;19959;-72
2022/12/13 15:59:03;;;;;;;;;;;;;;;;;;5053126;28;19954;-72
2022/12/13 16:01:29;;;;;;;;;;;;;;;;;;5053523;28;19912;-73
2022/12/13 16:03:55;;;;;;;;;;;;;;;;;;5053465;28;20472;-72
2022/12/13 16:06:21;;;;;;;;;;;;;;;;;;5053193;28;20290;-73
2022/12/13 16:08:48;;;;;;;;;;;;;;;;;;5053451;28;19971;-73
2022/12/13 16:11:14;;;;;;;;;;;;;;;;;;5053465;28;19999;-73
2022/12/13 16:13:40;;;;;;;;;;;;;;;;;;5051844;28;20007;-73
2022/12/13 16:16:06;;;;;;;;;;;;;;;;;;5053412;28;19909;-73
2022/12/13 16:18:32;;;;;;;;;;;;;;;;;;5053601;28;19908;-71
2022/12/13 16:20:58;;;;;;;;;;;;;;;;;;5052885;28;19909;-72
2022/12/13 16:23:24;;;;;;;;;;;;;;;;;;5053413;28;20387;-72
2022/12/13 16:25:50;;;;;;;;;;;;;;;;;;5051930;28;20408;-72
2022/12/13 16:28:16;;;;;;;;;;;;;;;;;;5052796;28;20324;-72
2022/12/13 16:30:42;;;;;;;;;;;;;;;;;;5053984;28;19912;-72
2022/12/13 16:33:08;;;;;;;;;;;;;;;;;;5057040;28;19931;-72
2022/12/13 16:35:34;;;;;;;;;;;;;;;;;;5056605;28;19912;-71
2022/12/13 16:38:00;;;;;;;;;;;;;;;;;;5056902;28;19913;-72
2022/12/13 16:40:27;;;;;;;;;;;;;;;;;;5056677;28;19947;-72
2022/12/13 16:42:53;;;;;;;;;;;;;;;;;;5056404;28;19916;-72
2022/12/13 16:45:19;;;;;;;;;;;;;;;;;;5055202;28;20292;-72
2022/12/13 16:47:45;;;;;;;;;;;;;;;;;;5056377;28;19994;-72
2022/12/13 16:50:11;;;;;;;;;;;;;;;;;;5056665;28;19944;-72
2022/12/13 16:52:38;;;;;;;;;;;;;;;;;;5056805;28;19913;-73